This is the latest recevied weather packets stored in our database for station/object F5SHD-10. If no packets are shown the sender has not sent any weather packets the latest 10 day(s).
| Time | Temp. | Humidity | Pressure | Rain* | Wind** | Luminosity | Snow |
|---|---|---|---|---|---|---|---|
| 1778344885 | 21.67° C | 54% | 1009.3 hPa | - | - | - | - |
| 1778343985 | 21.67° C | 54% | 1009.3 hPa | - | - | - | - |
| 1778343085 | 21.67° C | 54% | 1009.4 hPa | - | - | - | - |
| 1778342185 | 21.67° C | 54% | 1009.4 hPa | - | - | - | - |
| 1778341284 | 21.67° C | 54% | 1009.3 hPa | - | - | - | - |
| 1778340384 | 21.67° C | 54% | 1009.4 hPa | - | - | - | - |
| 1778339484 | 21.67° C | 54% | 1009.5 hPa | - | - | - | - |
| 1778338584 | 21.67° C | 54% | 1009.6 hPa | - | - | - | - |
| 1778337684 | 21.67° C | 54% | 1009.8 hPa | - | - | - | - |
| 1778336784 | 21.11° C | 54% | 1010 hPa | - | - | - | - |
| 1778335884 | 21.11° C | 54% | 1010.2 hPa | - | - | - | - |
| 1778334984 | 21.11° C | 54% | 1010.2 hPa | - | - | - | - |
| 1778334084 | 21.11° C | 54% | 1010.5 hPa | - | - | - | - |
| 1778333183 | 21.11° C | 54% | 1010.5 hPa | - | - | - | - |
| 1778332283 | 21.11° C | 54% | 1010.6 hPa | - | - | - | - |
| 1778331383 | 21.11° C | 54% | 1010.4 hPa | - | - | - | - |
| 1778330483 | 21.11° C | 54% | 1010.7 hPa | - | - | - | - |
| 1778329583 | 20.56° C | 55% | 1010.8 hPa | - | - | - | - |
| 1778328683 | 17.78° C | 65% | 1010.9 hPa | - | - | - | - |
| 1778258298 | 22.22° C | 52% | 1012.2 hPa | - | - | - | - |
| 1778257398 | 21.67° C | 54% | 1012.3 hPa | - | - | - | - |
| 1778256498 | 21.67° C | 52% | 1012.1 hPa | - | - | - | - |
| 1778255598 | 22.22° C | 51% | 1012.2 hPa | - | - | - | - |
| 1778254698 | 22.22° C | 51% | 1012 hPa | - | - | - | - |
| 1778253798 | 21.67° C | 52% | 1011.9 hPa | - | - | - | - |
* Rain since midnight (hover to see other rain measurements)
** Current wind speed in m/s (hover to see current wind gust speed)